createdAt,value
2023-05-10T00:01:53.055Z,100.00
2023-05-10T00:04:26.777Z,100.00
2023-05-10T00:06:53.869Z,100.00
2023-05-10T00:09:27.907Z,100.00
2023-05-10T00:12:03.031Z,100.00
2023-05-10T00:14:36.572Z,100.00
2023-05-10T00:19:55.262Z,100.00
2023-05-10T00:22:29.711Z,100.00
2023-05-10T00:24:59.724Z,100.00
2023-05-10T00:27:33.697Z,100.00
2023-05-10T00:30:07.790Z,100.00
2023-05-10T00:32:38.571Z,100.00
2023-05-10T00:35:07.017Z,100.00
2023-05-10T00:37:46.167Z,100.00
2023-05-10T00:40:16.783Z,100.00
2023-05-10T00:45:34.473Z,100.00
2023-05-10T00:51:29.068Z,100.00
2023-05-10T00:53:59.826Z,100.00
2023-05-10T00:56:32.017Z,100.00
2023-05-10T00:59:02.096Z,100.00
2023-05-10T01:01:53.398Z,100.00
2023-05-10T01:04:26.534Z,100.00
2023-05-10T01:06:57.524Z,100.00
2023-05-10T01:09:32.794Z,100.00
2023-05-10T01:12:04.101Z,100.00
2023-05-10T01:14:38.453Z,100.00
2023-05-10T01:17:10.892Z,100.00
2023-05-10T01:19:46.381Z,100.00
2023-05-10T01:22:20.907Z,100.00
2023-05-10T01:25:22.555Z,100.00
2023-05-10T01:28:10.683Z,100.00
2023-05-10T01:31:05.388Z,100.00
2023-05-10T01:33:58.975Z,100.00
2023-05-10T01:36:32.593Z,100.00
2023-05-10T01:39:25.318Z,100.00
2023-05-10T01:42:05.586Z,100.00
2023-05-10T01:45:15.794Z,100.00
2023-05-10T01:47:54.171Z,100.00
2023-05-10T01:50:35.430Z,100.00
2023-05-10T01:53:10.741Z,100.00
2023-05-10T01:55:56.176Z,100.00
2023-05-10T01:58:35.346Z,100.00
2023-05-10T02:01:22.927Z,100.00
2023-05-10T02:06:49.000Z,100.00
2023-05-10T02:09:43.489Z,100.00
2023-05-10T02:12:10.847Z,100.00
2023-05-10T02:14:40.199Z,100.00
2023-05-10T02:17:09.621Z,100.00
2023-05-10T02:19:39.502Z,100.00
2023-05-10T02:22:10.777Z,100.00
2023-05-10T02:24:41.522Z,100.00
2023-05-10T02:27:20.412Z,100.00
2023-05-10T02:30:14.355Z,100.00
2023-05-10T02:33:04.646Z,100.00
2023-05-10T02:35:36.945Z,100.00
2023-05-10T02:38:08.308Z,100.00
2023-05-10T02:40:39.466Z,100.00
2023-05-10T02:43:10.248Z,100.00
2023-05-10T02:45:56.768Z,100.00
2023-05-10T02:48:31.019Z,100.00
2023-05-10T02:51:06.021Z,100.00
2023-05-10T02:53:51.985Z,100.00
2023-05-10T02:56:47.043Z,100.00
2023-05-10T02:59:26.236Z,100.00
2023-05-10T03:01:53.707Z,100.00
2023-05-10T03:04:22.089Z,100.00
2023-05-10T03:06:56.159Z,100.00
2023-05-10T03:09:29.841Z,100.00
2023-05-10T03:12:40.787Z,100.00
2023-05-10T03:15:42.230Z,100.00
2023-05-10T03:18:12.769Z,100.00
2023-05-10T03:20:54.012Z,100.00
2023-05-10T03:23:47.868Z,100.00
2023-05-10T03:26:38.592Z,100.00
2023-05-10T03:29:11.003Z,100.00
2023-05-10T03:31:37.478Z,100.00
2023-05-10T03:34:03.836Z,100.00
2023-05-10T03:36:30.431Z,100.00
2023-05-10T03:38:57.037Z,100.00
2023-05-10T03:41:30.033Z,100.00
2023-05-10T03:44:09.281Z,100.00
2023-05-10T03:46:37.257Z,100.00
2023-05-10T03:49:05.806Z,100.00
2023-05-10T03:51:53.108Z,100.00
2023-05-10T03:54:26.980Z,100.00
2023-05-10T03:56:56.870Z,100.00
2023-05-10T03:59:28.090Z,100.00
2023-05-10T04:01:56.960Z,100.00
2023-05-10T04:04:25.839Z,100.00
2023-05-10T04:07:13.673Z,100.00
2023-05-10T04:09:43.623Z,100.00
2023-05-10T04:12:13.544Z,100.00
2023-05-10T04:14:41.525Z,100.00
2023-05-10T04:17:15.495Z,100.00
2023-05-10T04:19:49.224Z,100.00
2023-05-10T04:22:20.165Z,100.00
2023-05-10T04:25:07.457Z,100.00
2023-05-10T04:27:35.802Z,100.00
2023-05-10T04:30:03.736Z,100.00
2023-05-10T04:32:37.584Z,100.00
2023-05-10T04:35:15.899Z,100.00
2023-05-10T04:37:47.294Z,100.00
2023-05-10T04:40:19.171Z,100.00
2023-05-10T04:42:46.703Z,100.00
2023-05-10T04:45:16.914Z,100.00
2023-05-10T04:48:00.229Z,100.00
2023-05-10T04:50:47.324Z,100.00
2023-05-10T04:53:16.070Z,100.00
2023-05-10T04:55:46.481Z,100.00
2023-05-10T04:58:16.713Z,100.00
2023-05-10T05:00:48.434Z,100.00
2023-05-10T05:03:15.893Z,100.00
2023-05-10T05:06:06.098Z,100.00
2023-05-10T05:08:33.163Z,100.00
2023-05-10T05:11:01.188Z,100.00
2023-05-10T05:13:28.278Z,100.00
2023-05-10T05:15:58.336Z,100.00
2023-05-10T05:18:25.504Z,100.00
2023-05-10T05:20:55.768Z,100.00
2023-05-10T05:23:27.240Z,100.00
2023-05-10T05:25:56.254Z,100.00
2023-05-10T05:28:26.371Z,100.00
2023-05-10T05:31:11.164Z,100.00
2023-05-10T05:33:39.601Z,100.00
2023-05-10T05:36:23.979Z,100.00
2023-05-10T05:38:55.256Z,100.00
2023-05-10T05:41:24.120Z,100.00
2023-05-10T05:43:53.926Z,100.00
2023-05-10T05:46:27.882Z,100.00
2023-05-10T05:48:58.594Z,100.00
2023-05-10T05:51:27.465Z,100.00
2023-05-10T05:53:59.372Z,100.00
2023-05-10T05:56:33.310Z,100.00
2023-05-10T05:59:00.611Z,100.00
2023-05-10T06:01:31.004Z,100.00
2023-05-10T06:04:04.821Z,100.00
2023-05-10T06:06:38.485Z,100.00
2023-05-10T06:09:08.811Z,100.00
2023-05-10T06:11:35.983Z,100.00
2023-05-10T06:14:08.808Z,100.00
2023-05-10T06:17:07.842Z,100.00
2023-05-10T06:19:35.265Z,100.00
2023-05-10T06:22:06.993Z,100.00
2023-05-10T06:24:34.922Z,100.00
2023-05-10T06:27:01.745Z,100.00
2023-05-10T06:29:31.982Z,100.00
2023-05-10T06:32:27.030Z,100.00
2023-05-10T06:34:53.445Z,100.00
2023-05-10T06:37:19.884Z,100.00
2023-05-10T06:39:46.337Z,100.00
2023-05-10T06:42:12.862Z,100.00
2023-05-10T06:44:39.344Z,100.00
2023-05-10T06:47:05.760Z,100.00
2023-05-10T06:49:32.329Z,100.00
2023-05-10T06:51:58.843Z,100.00
2023-05-10T06:54:25.337Z,100.00
2023-05-10T06:56:51.784Z,100.00
2023-05-10T06:59:20.148Z,100.00
2023-05-10T07:01:46.679Z,100.00
2023-05-10T07:04:14.036Z,100.00
2023-05-10T07:06:40.502Z,100.00
2023-05-10T07:09:06.957Z,100.00
2023-05-10T07:11:33.400Z,100.00
2023-05-10T07:14:00.845Z,100.00
2023-05-10T07:16:27.540Z,100.00
2023-05-10T07:18:54.535Z,100.00
2023-05-10T07:21:21.064Z,100.00
2023-05-10T07:23:47.725Z,100.00
2023-05-10T07:26:16.038Z,100.00
2023-05-10T07:28:43.046Z,100.00
2023-05-10T07:31:09.808Z,100.00
2023-05-10T07:33:36.506Z,100.00
2023-05-10T07:36:03.029Z,100.00
2023-05-10T07:38:29.469Z,100.00
2023-05-10T07:40:55.861Z,100.00
2023-05-10T07:43:26.332Z,100.00
2023-05-10T07:45:54.708Z,100.00
2023-05-10T07:48:22.717Z,100.00
2023-05-10T07:50:49.156Z,100.00
2023-05-10T07:53:15.966Z,100.00
2023-05-10T07:55:42.535Z,100.00
2023-05-10T07:58:09.110Z,100.00
2023-05-10T08:00:35.762Z,100.00
2023-05-10T08:03:02.377Z,100.00
2023-05-10T08:05:29.060Z,100.00
2023-05-10T08:07:55.492Z,100.00
2023-05-10T08:10:22.198Z,100.00
2023-05-10T08:12:48.631Z,100.00
2023-05-10T08:15:15.318Z,100.00
2023-05-10T08:17:42.089Z,100.00
2023-05-10T08:20:08.961Z,100.00
2023-05-10T08:22:35.629Z,100.00
2023-05-10T08:25:02.129Z,100.00
2023-05-10T08:27:28.514Z,100.00
2023-05-10T08:29:54.909Z,100.00
2023-05-10T08:32:21.326Z,100.00
2023-05-10T08:34:47.763Z,100.00
2023-05-10T08:37:14.580Z,100.00
2023-05-10T08:39:41.334Z,100.00
2023-05-10T08:42:10.189Z,100.00
2023-05-10T08:44:37.668Z,100.00
2023-05-10T08:47:07.687Z,100.00
2023-05-10T08:49:35.117Z,100.00
2023-05-10T08:52:05.348Z,100.00
2023-05-10T08:54:35.552Z,100.00
2023-05-10T08:57:02.458Z,100.00
2023-05-10T08:59:29.357Z,100.00
2023-05-10T09:01:58.903Z,99.59
2023-05-10T09:04:25.755Z,99.34
2023-05-10T09:06:52.423Z,98.36
2023-05-10T09:09:20.471Z,97.78
2023-05-10T09:11:47.182Z,96.92
2023-05-10T09:14:14.081Z,96.72
2023-05-10T09:16:41.205Z,96.04
2023-05-10T09:19:09.342Z,95.37
2023-05-10T09:21:39.317Z,93.72
2023-05-10T09:24:07.581Z,93.54
2023-05-10T09:26:34.248Z,92.72
2023-05-10T09:29:01.530Z,93.58
2023-05-10T09:31:55.717Z,92.02
2023-05-10T09:34:30.960Z,92.23
2023-05-10T09:37:02.023Z,87.34
2023-05-10T09:39:35.861Z,85.39
2023-05-10T09:42:10.506Z,85.42
2023-05-10T09:44:38.980Z,83.88
2023-05-10T09:47:05.615Z,84.23
2023-05-10T09:49:35.765Z,82.99
2023-05-10T09:52:09.003Z,83.39
2023-05-10T09:54:35.644Z,83.55
2023-05-10T09:57:02.825Z,81.33
2023-05-10T09:59:30.340Z,81.29
2023-05-10T10:01:58.842Z,80.60
2023-05-10T10:04:25.871Z,81.15
2023-05-10T10:07:03.692Z,81.96
2023-05-10T10:09:30.860Z,81.86
2023-05-10T10:11:57.804Z,82.21
2023-05-10T10:14:25.264Z,82.22
2023-05-10T10:17:05.924Z,82.52
2023-05-10T10:19:35.229Z,82.55
2023-05-10T10:22:01.913Z,82.96
2023-05-10T10:24:28.479Z,82.89
2023-05-10T10:27:03.472Z,82.01
2023-05-10T10:29:32.918Z,80.57
2023-05-10T10:32:13.225Z,80.35
2023-05-10T10:34:40.872Z,80.66
2023-05-10T10:37:07.650Z,81.21
2023-05-10T10:39:34.127Z,81.95
2023-05-10T10:42:00.936Z,82.11
2023-05-10T10:44:34.745Z,81.47
2023-05-10T10:47:14.067Z,82.09
2023-05-10T10:50:09.337Z,80.94
2023-05-10T10:52:40.152Z,79.89
2023-05-10T10:55:10.326Z,80.19
2023-05-10T10:57:48.797Z,81.04
2023-05-10T11:00:28.870Z,80.02
2023-05-10T11:03:00.814Z,81.24
2023-05-10T11:05:36.469Z,80.51
2023-05-10T11:08:28.902Z,79.28
2023-05-10T11:11:01.370Z,79.65
2023-05-10T11:13:42.813Z,80.06
2023-05-10T11:16:25.902Z,80.64
2023-05-10T11:18:59.144Z,81.64
2023-05-10T11:21:25.708Z,82.25
2023-05-10T11:23:58.460Z,81.90
2023-05-10T11:26:36.269Z,81.05
2023-05-10T11:29:03.377Z,80.98
2023-05-10T11:31:30.427Z,79.52
2023-05-10T11:33:59.100Z,78.89
2023-05-10T11:36:36.098Z,78.00
2023-05-10T11:39:03.971Z,77.15
2023-05-10T11:41:31.799Z,76.70
2023-05-10T11:43:59.438Z,74.58
2023-05-10T11:46:27.976Z,75.17
2023-05-10T11:48:58.670Z,73.86
2023-05-10T11:51:26.212Z,74.83
2023-05-10T11:53:55.254Z,74.83
2023-05-10T11:56:22.051Z,74.28
2023-05-10T11:58:55.096Z,74.81
2023-05-10T12:01:22.192Z,74.82
2023-05-10T12:03:49.485Z,76.09
2023-05-10T12:06:17.245Z,75.92
2023-05-10T12:08:48.653Z,76.08
2023-05-10T12:11:16.552Z,76.85
2023-05-10T12:13:44.058Z,77.91
2023-05-10T12:16:21.581Z,79.09
2023-05-10T12:18:52.828Z,78.27
2023-05-10T12:21:21.050Z,76.74
2023-05-10T12:23:49.601Z,75.77
2023-05-10T12:26:16.349Z,73.72
2023-05-10T12:28:42.939Z,75.92
2023-05-10T12:31:09.950Z,73.63
2023-05-10T12:33:43.541Z,71.58
2023-05-10T12:36:14.731Z,71.09
2023-05-10T12:38:43.983Z,70.28
2023-05-10T12:41:12.416Z,71.31
2023-05-10T12:43:39.858Z,70.46
2023-05-10T12:46:17.738Z,71.85
2023-05-10T12:48:45.441Z,74.05
2023-05-10T12:51:14.036Z,73.53
2023-05-10T12:53:43.390Z,72.48
2023-05-10T12:56:11.142Z,73.05
2023-05-10T12:58:37.562Z,71.62
2023-05-10T13:01:05.067Z,69.73
2023-05-10T13:03:31.597Z,70.59
2023-05-10T13:05:58.021Z,73.16
2023-05-10T13:08:24.679Z,72.69
2023-05-10T13:10:51.108Z,71.68
2023-05-10T13:13:18.845Z,71.00
2023-05-10T13:15:45.380Z,72.86
2023-05-10T13:18:12.166Z,75.21
2023-05-10T13:20:38.829Z,76.28
2023-05-10T13:23:05.452Z,78.16
2023-05-10T13:25:31.837Z,79.48
2023-05-10T13:27:58.450Z,81.19
2023-05-10T13:30:25.135Z,82.15
2023-05-10T13:32:51.920Z,82.80
2023-05-10T13:35:18.856Z,83.20
2023-05-10T13:37:45.373Z,83.33
2023-05-10T13:40:12.057Z,84.38
2023-05-10T13:42:38.547Z,92.59
2023-05-10T13:45:05.561Z,95.70
2023-05-10T13:47:32.166Z,98.22
2023-05-10T13:49:59.366Z,99.36
2023-05-10T13:52:26.084Z,100.00
2023-05-10T13:54:53.252Z,100.00
2023-05-10T13:57:19.620Z,100.00
2023-05-10T13:59:45.991Z,100.00
2023-05-10T14:02:14.203Z,100.00
2023-05-10T14:04:40.638Z,100.00
2023-05-10T14:07:07.026Z,100.00
2023-05-10T14:09:33.350Z,100.00
2023-05-10T14:11:59.773Z,100.00
2023-05-10T14:14:26.184Z,100.00
2023-05-10T14:16:52.978Z,100.00
2023-05-10T14:19:19.422Z,100.00
2023-05-10T14:21:45.908Z,100.00
2023-05-10T14:24:12.939Z,100.00
2023-05-10T14:26:39.535Z,100.00
2023-05-10T14:29:06.100Z,100.00
2023-05-10T14:31:32.978Z,100.00
2023-05-10T14:34:00.132Z,100.00
2023-05-10T14:36:26.766Z,100.00
2023-05-10T14:38:53.454Z,100.00
2023-05-10T14:41:19.880Z,100.00
2023-05-10T14:43:46.852Z,100.00
2023-05-10T14:46:13.561Z,100.00
2023-05-10T14:48:40.115Z,100.00
2023-05-10T14:51:07.607Z,100.00
2023-05-10T14:53:34.423Z,100.00
2023-05-10T14:56:02.273Z,100.00
2023-05-10T14:58:29.027Z,100.00
2023-05-10T15:00:55.680Z,100.00
2023-05-10T15:03:23.584Z,100.00
2023-05-10T15:05:50.544Z,100.00
2023-05-10T15:08:17.225Z,100.00
2023-05-10T15:10:43.849Z,100.00
2023-05-10T15:13:10.454Z,100.00
2023-05-10T15:15:37.306Z,100.00
2023-05-10T15:18:03.991Z,100.00
2023-05-10T15:20:30.501Z,100.00
2023-05-10T15:22:57.183Z,100.00
2023-05-10T15:25:24.831Z,100.00
2023-05-10T15:27:51.194Z,100.00
2023-05-10T15:30:17.802Z,100.00
2023-05-10T15:32:44.359Z,100.00
2023-05-10T15:35:11.610Z,100.00
2023-05-10T15:37:40.863Z,100.00
2023-05-10T15:40:07.703Z,100.00
2023-05-10T15:42:34.190Z,100.00
2023-05-10T15:45:00.684Z,100.00
2023-05-10T15:47:28.453Z,100.00
2023-05-10T15:49:54.856Z,100.00
2023-05-10T15:52:21.598Z,100.00
2023-05-10T15:54:48.214Z,100.00
2023-05-10T15:57:14.587Z,100.00
2023-05-10T15:59:41.730Z,100.00
2023-05-10T16:02:11.025Z,100.00
2023-05-10T16:04:37.896Z,100.00
2023-05-10T16:07:04.309Z,100.00
2023-05-10T16:09:30.973Z,100.00
2023-05-10T16:11:57.419Z,100.00
2023-05-10T16:14:24.858Z,100.00
2023-05-10T16:16:51.812Z,100.00
2023-05-10T16:19:18.524Z,100.00
2023-05-10T16:21:45.194Z,100.00
2023-05-10T16:24:11.626Z,100.00
2023-05-10T16:26:41.023Z,100.00
2023-05-10T16:29:08.879Z,100.00
2023-05-10T16:31:35.511Z,100.00
2023-05-10T16:34:02.283Z,100.00
2023-05-10T16:36:29.624Z,100.00
2023-05-10T16:38:56.651Z,100.00
2023-05-10T16:41:23.208Z,100.00
2023-05-10T16:43:50.266Z,100.00
2023-05-10T16:46:16.748Z,100.00
2023-05-10T16:48:43.424Z,100.00
2023-05-10T16:51:09.931Z,100.00
2023-05-10T16:53:36.394Z,100.00
2023-05-10T16:56:03.573Z,100.00
2023-05-10T16:58:30.035Z,100.00
2023-05-10T17:00:56.520Z,100.00
2023-05-10T17:03:23.495Z,100.00
2023-05-10T17:05:50.089Z,99.87
2023-05-10T17:08:16.932Z,99.26
2023-05-10T17:10:43.439Z,99.15
2023-05-10T17:13:10.667Z,98.49
2023-05-10T17:15:38.237Z,98.48
2023-05-10T17:18:05.085Z,97.57
2023-05-10T17:20:31.642Z,97.47
2023-05-10T17:22:58.140Z,97.52
2023-05-10T17:25:24.764Z,96.83
2023-05-10T17:27:51.326Z,96.37
2023-05-10T17:30:22.603Z,96.01
2023-05-10T17:32:49.276Z,95.86
2023-05-10T17:35:16.153Z,95.09
2023-05-10T17:37:44.231Z,95.23
2023-05-10T17:40:11.383Z,95.28
2023-05-10T17:42:37.977Z,95.52
2023-05-10T17:45:04.841Z,95.55
2023-05-10T17:47:31.674Z,95.94
2023-05-10T17:49:58.158Z,95.77
2023-05-10T17:52:24.600Z,95.99
2023-05-10T17:54:51.238Z,96.09
2023-05-10T17:57:18.317Z,96.10
2023-05-10T17:59:44.761Z,96.08
2023-05-10T18:02:11.121Z,95.35
2023-05-10T18:04:40.058Z,95.47
2023-05-10T18:07:07.865Z,95.74
2023-05-10T18:09:34.383Z,95.33
2023-05-10T18:12:03.138Z,94.79
2023-05-10T18:14:39.981Z,95.20
2023-05-10T18:17:08.386Z,95.24
2023-05-10T18:19:34.826Z,95.76
2023-05-10T18:22:01.271Z,95.57
2023-05-10T18:24:38.481Z,96.09
2023-05-10T18:27:06.759Z,95.45
2023-05-10T18:29:33.270Z,95.18
2023-05-10T18:31:59.788Z,95.26
2023-05-10T18:34:26.350Z,95.30
2023-05-10T18:36:53.201Z,95.31
2023-05-10T18:39:19.743Z,95.33
2023-05-10T18:41:46.347Z,95.61
2023-05-10T18:44:12.858Z,95.58
2023-05-10T18:46:39.487Z,96.27
2023-05-10T18:49:08.447Z,95.87
2023-05-10T18:51:35.046Z,96.38
2023-05-10T18:54:02.002Z,96.69
2023-05-10T18:56:28.600Z,96.81
2023-05-10T18:58:55.339Z,97.06
2023-05-10T19:01:22.158Z,97.15
2023-05-10T19:03:48.781Z,97.22
2023-05-10T19:06:15.310Z,97.46
2023-05-10T19:08:41.835Z,97.36
2023-05-10T19:11:12.128Z,97.27
2023-05-10T19:13:38.923Z,97.20
2023-05-10T19:16:10.549Z,97.50
2023-05-10T19:18:39.633Z,97.55
2023-05-10T19:21:07.666Z,97.88
2023-05-10T19:23:34.945Z,97.87
2023-05-10T19:26:02.402Z,97.95
2023-05-10T19:28:29.179Z,97.67
2023-05-10T19:30:56.048Z,97.90
2023-05-10T19:33:23.299Z,98.40
2023-05-10T19:35:52.468Z,98.59
2023-05-10T19:38:26.036Z,98.88
2023-05-10T19:40:59.348Z,98.84
2023-05-10T19:43:27.618Z,98.44
2023-05-10T19:45:55.266Z,98.76
2023-05-10T19:48:21.937Z,98.52
2023-05-10T19:50:48.389Z,98.37
2023-05-10T19:53:14.899Z,98.69
2023-05-10T19:55:41.771Z,98.89
2023-05-10T19:58:08.543Z,98.85
2023-05-10T20:00:35.615Z,98.98
2023-05-10T20:03:02.719Z,99.07
2023-05-10T20:05:29.269Z,99.08
2023-05-10T20:08:01.317Z,99.05
2023-05-10T20:10:28.306Z,99.00
2023-05-10T20:12:56.613Z,98.78
2023-05-10T20:15:23.818Z,99.33
2023-05-10T20:17:51.311Z,99.36
2023-05-10T20:20:18.365Z,99.53
2023-05-10T20:22:45.368Z,99.52
2023-05-10T20:25:12.070Z,99.53
2023-05-10T20:27:38.863Z,99.85
2023-05-10T20:30:06.542Z,100.00
2023-05-10T20:32:34.206Z,100.00
2023-05-10T20:35:02.826Z,100.00
2023-05-10T20:40:12.756Z,100.00
2023-05-10T20:42:39.273Z,100.00
2023-05-10T20:45:06.414Z,100.00
2023-05-10T20:47:33.292Z,100.00
2023-05-10T20:49:59.890Z,100.00
2023-05-10T20:52:26.385Z,100.00
2023-05-10T20:54:52.837Z,100.00
2023-05-10T20:57:20.479Z,100.00
2023-05-10T20:59:47.027Z,100.00
2023-05-10T21:02:13.598Z,100.00
2023-05-10T21:04:40.526Z,100.00
2023-05-10T21:07:07.243Z,100.00
2023-05-10T21:09:35.971Z,100.00
2023-05-10T21:12:05.725Z,100.00
2023-05-10T21:14:32.356Z,99.75
2023-05-10T21:16:59.091Z,100.00
2023-05-10T21:19:25.523Z,100.00
2023-05-10T21:21:52.082Z,100.00
2023-05-10T21:24:19.244Z,100.00
2023-05-10T21:26:46.581Z,100.00
2023-05-10T21:29:13.224Z,100.00
2023-05-10T21:31:39.785Z,100.00
2023-05-10T21:34:07.014Z,100.00
2023-05-10T21:36:33.949Z,100.00
2023-05-10T21:39:00.617Z,100.00
2023-05-10T21:41:27.194Z,100.00
2023-05-10T21:43:53.727Z,100.00
2023-05-10T21:46:20.327Z,100.00
2023-05-10T21:48:46.958Z,100.00
2023-05-10T21:51:13.562Z,100.00
2023-05-10T21:53:40.665Z,100.00
2023-05-10T21:56:10.464Z,100.00
2023-05-10T21:58:37.039Z,100.00
2023-05-10T22:01:03.627Z,100.00
2023-05-10T22:03:30.386Z,100.00
2023-05-10T22:05:56.998Z,100.00
2023-05-10T22:08:24.069Z,100.00
2023-05-10T22:10:52.078Z,100.00
2023-05-10T22:13:18.870Z,100.00
2023-05-10T22:15:45.469Z,100.00
2023-05-10T22:18:12.061Z,100.00
2023-05-10T22:20:38.740Z,100.00
2023-05-10T22:23:05.596Z,100.00
2023-05-10T22:25:32.230Z,100.00
2023-05-10T22:27:58.725Z,100.00
2023-05-10T22:30:25.909Z,100.00
2023-05-10T22:32:52.507Z,100.00
2023-05-10T22:35:19.329Z,100.00
2023-05-10T22:37:47.516Z,100.00
2023-05-10T22:40:13.948Z,100.00
2023-05-10T22:42:40.807Z,100.00
2023-05-10T22:45:08.349Z,100.00
2023-05-10T22:47:35.029Z,100.00
2023-05-10T22:50:03.821Z,100.00
2023-05-10T22:52:30.876Z,100.00
2023-05-10T22:54:57.505Z,100.00
2023-05-10T22:57:24.765Z,100.00
2023-05-10T22:59:52.161Z,100.00
2023-05-10T23:02:18.742Z,100.00
2023-05-10T23:04:45.939Z,100.00
2023-05-10T23:07:12.481Z,100.00
2023-05-10T23:09:39.068Z,100.00
2023-05-10T23:12:05.795Z,100.00
2023-05-10T23:14:32.495Z,100.00
2023-05-10T23:16:59.149Z,100.00
2023-05-10T23:19:25.893Z,100.00
2023-05-10T23:21:52.490Z,100.00
2023-05-10T23:24:19.448Z,100.00
2023-05-10T23:26:46.697Z,100.00
2023-05-10T23:29:13.199Z,100.00
2023-05-10T23:31:45.238Z,100.00
2023-05-10T23:34:12.299Z,100.00
2023-05-10T23:36:39.341Z,100.00
2023-05-10T23:39:06.918Z,100.00
2023-05-10T23:41:33.654Z,100.00
2023-05-10T23:44:01.657Z,100.00
2023-05-10T23:46:28.899Z,100.00
2023-05-10T23:48:56.086Z,100.00
2023-05-10T23:51:22.575Z,100.00
2023-05-10T23:53:49.190Z,100.00
2023-05-10T23:56:15.905Z,100.00
2023-05-10T23:58:42.899Z,100.00
